Time;durP1;ratioP1;P1;durP2;ratioP2;P2;SDS_P1;SDS_P2;PMS_P1;PMS_P2;Temp;Humidity;BMP_temperature;BMP_pressure;BME280_temperature;BME280_humidity;BME280_pressure;Samples;Min_cycle;Max_cycle;Signal;HPM_P1;HPM_P2
2023/03/21 00:01:51;;;;;;;7.82;7.10;;;15.60;80.30;;;;;;4126263;28;20771;-65
2023/03/21 00:04:32;;;;;;;7.38;6.68;;;15.60;80.00;;;;;;4125732;28;20049;-65
2023/03/21 00:07:30;;;;;;;8.00;7.00;;;15.70;79.90;;;;;;4141060;28;20405;-65
2023/03/21 00:10:11;;;;;;;7.88;7.18;;;15.70;79.70;;;;;;4150908;28;20125;-65
2023/03/21 00:12:59;;;;;;;7.80;7.00;;;15.70;79.50;;;;;;4158941;28;20056;-65
2023/03/21 00:15:49;;;;;;;7.40;6.70;;;15.70;79.50;;;;;;4158775;28;20055;-65
2023/03/21 00:18:47;;;;;;;7.03;6.05;;;15.80;79.60;;;;;;4158593;28;20065;-65
2023/03/21 00:21:31;;;;;;;7.07;6.43;;;15.90;79.40;;;;;;4135846;28;20104;-65
2023/03/21 00:24:31;;;;;;;7.30;6.60;;;15.90;79.00;;;;;;4133518;28;20061;-66
2023/03/21 00:27:12;;;;;;;6.85;6.03;;;16.00;78.70;;;;;;4129158;28;20077;-65
2023/03/21 00:30:15;;;;;;;6.23;5.73;;;16.10;78.40;;;;;;4132576;28;20076;-65
2023/03/21 00:32:56;;;;;;;7.07;6.38;;;16.10;78.10;;;;;;4145491;28;20837;-65
2023/03/21 00:35:41;;;;;;;6.57;5.97;;;16.10;78.90;;;;;;4159308;28;20064;-65
2023/03/21 00:38:41;;;;;;;7.70;6.50;;;16.10;78.10;;;;;;4139341;28;20791;-65
2023/03/21 00:41:22;;;;;;;7.20;6.60;;;16.10;78.10;;;;;;4133964;28;20116;-65
2023/03/21 00:44:22;;;;;;;7.15;6.45;;;16.20;77.90;;;;;;4132305;28;20112;-63
2023/03/21 00:47:04;;;;;;;6.90;6.30;;;16.30;77.60;;;;;;4144667;28;20057;-63
2023/03/21 00:49:47;;;;;;;7.25;6.60;;;16.30;77.60;;;;;;4153321;28;20408;-63
2023/03/21 00:52:30;;;;;;;6.03;5.53;;;16.30;77.40;;;;;;4156737;28;20060;-63
2023/03/21 00:55:21;;;;;;;6.50;5.90;;;16.30;77.30;;;;;;4143985;28;20172;-64
2023/03/21 00:58:01;;;;;;;5.70;5.20;;;16.30;77.30;;;;;;4137812;28;20057;-64
2023/03/21 01:00:42;;;;;;;6.50;5.83;;;16.40;77.20;;;;;;4137887;28;20053;-63
2023/03/21 01:03:25;;;;;;;7.05;6.25;;;16.40;77.20;;;;;;4111554;28;20049;-63
2023/03/21 01:06:06;;;;;;;7.80;7.00;;;16.40;78.00;;;;;;4111958;28;20049;-65
2023/03/21 01:08:49;;;;;;;7.38;6.38;;;16.40;77.20;;;;;;4143436;28;20065;-64
2023/03/21 01:11:34;;;;;;;9.32;7.63;;;16.30;77.30;;;;;;4127080;28;20057;-64
2023/03/21 01:14:19;;;;;;;11.52;8.43;;;16.30;77.30;;;;;;4137936;28;20053;-64
2023/03/21 01:17:03;;;;;;;13.80;9.38;;;16.40;77.20;;;;;;4110891;28;20054;-65
2023/03/21 01:19:44;;;;;;;19.35;9.80;;;16.40;77.10;;;;;;4128087;28;20143;-65
2023/03/21 01:22:32;;;;;;;17.30;11.52;;;16.40;77.10;;;;;;4129806;28;20049;-65
2023/03/21 01:25:14;;;;;;;16.83;11.02;;;16.40;77.10;;;;;;4131314;28;20048;-64
2023/03/21 01:28:02;;;;;;;18.05;10.88;;;16.40;77.00;;;;;;4142857;28;20057;-65
2023/03/21 01:30:45;;;;;;;17.38;11.32;;;16.50;76.90;;;;;;4127188;28;20072;-65
2023/03/21 01:33:27;;;;;;;17.70;11.93;;;16.50;76.70;;;;;;4128252;28;20054;-64
2023/03/21 01:36:09;;;;;;;20.45;12.25;;;16.50;76.80;;;;;;4127105;28;20049;-65
2023/03/21 01:38:54;;;;;;;16.48;10.52;;;16.50;76.80;;;;;;4141161;28;20053;-65
2023/03/21 01:41:38;;;;;;;17.95;11.98;;;16.50;76.60;;;;;;4126902;28;20513;-65
2023/03/21 01:44:55;;;;;;;21.35;12.32;;;16.60;76.40;;;;;;4137574;28;20069;-64
2023/03/21 01:47:36;;;;;;;18.98;12.43;;;16.60;76.20;;;;;;4137934;28;20061;-64
2023/03/21 01:50:29;;;;;;;15.98;11.80;;;16.70;76.10;;;;;;4127408;28;20076;-65
2023/03/21 01:53:16;;;;;;;22.45;12.43;;;16.60;76.00;;;;;;4130471;28;20516;-64
2023/03/21 01:55:59;;;;;;;19.80;12.23;;;16.60;76.10;;;;;;4143500;28;20127;-64
2023/03/21 01:59:08;;;;;;;19.50;12.60;;;16.60;76.30;;;;;;4111428;28;20062;-65
2023/03/21 02:02:19;;;;;;;19.27;12.55;;;16.60;76.30;;;;;;4110202;28;20057;-64
2023/03/21 02:05:12;;;;;;;18.35;11.65;;;16.60;76.20;;;;;;4126298;28;20057;-65
2023/03/21 02:07:53;;;;;;;16.83;11.88;;;16.60;76.30;;;;;;4128301;28;20053;-65
2023/03/21 02:10:36;;;;;;;16.05;11.48;;;16.60;76.30;;;;;;4142593;28;20065;-65
2023/03/21 02:13:18;;;;;;;14.32;10.80;;;16.60;76.40;;;;;;4142591;28;20061;-65
2023/03/21 02:16:06;;;;;;;15.93;11.85;;;16.50;76.50;;;;;;4142697;28;20052;-65
2023/03/21 02:18:59;;;;;;;17.55;11.18;;;16.50;76.70;;;;;;4142225;28;20413;-65
2023/03/21 02:22:09;;;;;;;15.63;11.30;;;16.50;77.00;;;;;;4152850;28;20077;-66
2023/03/21 02:25:11;;;;;;;16.10;11.02;;;16.40;77.10;;;;;;4099254;28;20069;-65
2023/03/21 02:28:08;;;;;;;14.07;10.20;;;16.50;77.10;;;;;;4111126;28;20174;-65
2023/03/21 02:31:31;;;;;;;16.02;11.60;;;16.50;76.90;;;;;;4134842;28;20057;-65
2023/03/21 02:34:45;;;;;;;12.25;9.70;;;16.50;76.80;;;;;;4105104;28;20065;-65
2023/03/21 02:37:32;;;;;;;12.50;10.10;;;16.60;76.80;;;;;;4120970;28;20053;-66
2023/03/21 02:40:25;;;;;;;12.80;9.60;;;16.50;76.80;;;;;;4110939;28;20068;-66
2023/03/21 02:43:14;;;;;;;13.48;10.40;;;16.60;76.80;;;;;;4126608;28;20123;-65
2023/03/21 02:46:10;;;;;;;13.68;10.73;;;16.60;76.50;;;;;;4133513;28;20053;-64
2023/03/21 02:48:55;;;;;;;13.77;10.13;;;16.70;76.50;;;;;;4133628;28;20065;-64
2023/03/21 02:51:40;;;;;;;13.75;10.85;;;16.70;76.30;;;;;;4142969;28;20096;-64
2023/03/21 02:54:25;;;;;;;12.32;10.52;;;16.70;76.40;;;;;;4141461;28;20044;-64
2023/03/21 02:57:25;;;;;;;15.27;10.68;;;16.70;76.50;;;;;;4125394;28;20512;-64
2023/03/21 03:00:21;;;;;;;16.10;11.93;;;16.70;76.40;;;;;;4114630;28;20197;-64
2023/03/21 03:03:03;;;;;;;14.98;12.02;;;16.60;76.20;;;;;;4125631;28;20053;-64
2023/03/21 03:05:56;;;;;;;14.18;11.77;;;16.70;76.30;;;;;;4110429;28;20073;-64
2023/03/21 03:08:45;;;;;;;14.23;11.50;;;16.70;76.30;;;;;;4127270;28;20078;-65
2023/03/21 03:11:44;;;;;;;13.50;11.85;;;16.60;76.30;;;;;;4126301;28;20516;-64
2023/03/21 03:14:41;;;;;;;14.00;12.02;;;16.60;77.40;;;;;;4126646;28;20072;-64
2023/03/21 03:17:51;;;;;;;14.90;11.98;;;16.50;76.70;;;;;;4126608;28;20506;-64
2023/03/21 03:20:44;;;;;;;13.35;11.82;;;16.50;77.80;;;;;;4126850;28;20193;-64
2023/03/21 03:23:30;;;;;;;12.68;11.45;;;16.60;76.90;;;;;;4129180;28;20076;-64
2023/03/21 03:26:16;;;;;;;12.93;11.45;;;16.70;76.60;;;;;;4142520;28;20057;-64
2023/03/21 03:29:04;;;;;;;13.35;12.02;;;16.70;76.30;;;;;;4142568;28;20041;-64
2023/03/21 03:31:51;;;;;;;12.10;10.82;;;16.70;77.00;;;;;;4146896;28;20064;-64
2023/03/21 03:34:38;;;;;;;12.63;11.32;;;16.80;76.10;;;;;;4131759;28;20048;-65
2023/03/21 03:37:25;;;;;;;13.35;11.95;;;16.70;76.20;;;;;;4147510;28;20047;-65
2023/03/21 03:40:09;;;;;;;12.95;11.05;;;16.70;76.30;;;;;;4153347;28;20060;-65
2023/03/21 03:42:57;;;;;;;11.88;10.65;;;16.60;76.50;;;;;;4156745;28;20061;-65
2023/03/21 03:45:50;;;;;;;12.43;11.13;;;16.60;76.70;;;;;;4144399;28;20483;-65
2023/03/21 03:48:34;;;;;;;13.57;12.18;;;16.50;76.90;;;;;;4155923;28;20567;-65
2023/03/21 03:51:20;;;;;;;16.10;11.40;;;16.50;77.30;;;;;;4143451;28;20115;-65
2023/03/21 03:54:38;;;;;;;11.95;10.73;;;16.50;77.30;;;;;;4140148;28;20048;-65
2023/03/21 03:57:20;;;;;;;13.52;12.13;;;16.60;77.10;;;;;;4125139;28;20093;-65
2023/03/21 04:00:05;;;;;;;12.57;11.27;;;16.60;76.90;;;;;;4114463;28;20148;-65
2023/03/21 04:03:08;;;;;;;12.23;10.27;;;16.70;76.90;;;;;;4118231;28;20642;-65
2023/03/21 04:05:49;;;;;;;12.38;11.07;;;16.70;76.80;;;;;;4101221;28;20677;-65
2023/03/21 04:08:30;;;;;;;12.20;10.90;;;16.70;76.60;;;;;;4130314;28;20054;-66
2023/03/21 04:11:13;;;;;;;;;;;16.70;76.50;;;;;;4116847;28;20064;-66
2023/03/21 04:13:58;;;;;;;12.00;10.70;;;16.80;76.50;;;;;;4130593;28;19929;-65
2023/03/21 04:16:40;;;;;;;11.80;10.02;;;16.70;76.40;;;;;;4152940;28;20060;-65
2023/03/21 04:19:22;;;;;;;11.45;10.05;;;16.70;76.60;;;;;;4160232;28;20103;-65
2023/03/21 04:22:04;;;;;;;11.43;10.23;;;16.80;76.70;;;;;;4160643;28;20068;-65
2023/03/21 04:24:49;;;;;;;10.10;9.02;;;16.80;76.50;;;;;;4160752;28;20056;-65
2023/03/21 04:27:31;;;;;;;;;;;16.80;76.30;;;;;;4143153;28;20041;-65
2023/03/21 04:30:33;;;;;;;9.30;8.38;;;16.80;76.10;;;;;;4102747;28;19928;-65
2023/03/21 04:33:25;;;;;;;9.55;8.10;;;16.80;76.20;;;;;;4127755;28;20556;-65
2023/03/21 04:36:25;;;;;;;9.77;8.85;;;16.80;76.20;;;;;;4128850;28;20053;-66
2023/03/21 04:39:11;;;;;;;10.35;8.85;;;16.70;76.40;;;;;;4111643;28;20094;-65
2023/03/21 04:41:53;;;;;;;9.48;8.48;;;16.70;76.60;;;;;;4127690;28;20050;-66
2023/03/21 04:44:35;;;;;;;10.35;8.88;;;16.70;76.80;;;;;;4144714;28;20432;-64
2023/03/21 04:47:19;;;;;;;9.65;8.65;;;16.60;77.10;;;;;;4129744;28;20065;-64
2023/03/21 04:50:03;;;;;;;9.10;8.20;;;16.60;77.20;;;;;;4135591;28;20048;-64
2023/03/21 04:52:46;;;;;;;;;;;16.60;77.10;;;;;;4128212;28;20057;-63
2023/03/21 04:55:30;;;;;;;9.75;8.68;;;16.70;77.10;;;;;;4127470;28;19988;-63
2023/03/21 04:58:11;;;;;;;9.77;8.70;;;16.70;77.00;;;;;;4128518;28;20067;-63
2023/03/21 05:00:52;;;;;;;11.10;8.73;;;16.80;76.80;;;;;;4136990;28;20053;-64
2023/03/21 05:03:38;;;;;;;9.05;8.15;;;16.70;76.60;;;;;;4160797;28;20412;-63
2023/03/21 05:06:20;;;;;;;11.48;8.88;;;16.80;76.50;;;;;;4160132;28;20154;-64
2023/03/21 05:09:05;;;;;;;9.43;8.43;;;16.80;76.50;;;;;;4161076;28;20060;-63
2023/03/21 05:11:48;;;;;;;11.05;8.45;;;16.70;76.50;;;;;;4148081;28;20083;-63
2023/03/21 05:14:31;;;;;;;9.27;8.35;;;16.80;76.70;;;;;;4159827;28;20045;-63
2023/03/21 05:17:14;;;;;;;9.85;8.45;;;16.80;76.70;;;;;;4127330;28;20050;-63
2023/03/21 05:19:56;;;;;;;9.98;8.88;;;16.80;76.50;;;;;;4143898;28;20188;-63
2023/03/21 05:22:39;;;;;;;10.82;9.13;;;16.80;76.40;;;;;;4112628;28;20582;-64
2023/03/21 05:25:33;;;;;;;9.70;8.70;;;16.80;76.20;;;;;;4120383;28;20056;-64
2023/03/21 05:28:21;;;;;;;10.10;8.98;;;16.80;76.20;;;;;;4136603;28;20061;-65
2023/03/21 05:31:03;;;;;;;9.23;8.32;;;16.80;76.30;;;;;;4127077;28;20116;-65
2023/03/21 05:33:44;;;;;;;9.75;8.68;;;16.80;76.50;;;;;;4127955;28;20108;-64
2023/03/21 05:36:29;;;;;;;10.38;8.52;;;16.70;76.80;;;;;;4142168;28;20049;-64
2023/03/21 05:39:10;;;;;;;9.88;8.48;;;16.70;77.00;;;;;;4134021;28;20060;-64
2023/03/21 05:41:57;;;;;;;9.75;8.52;;;16.70;76.80;;;;;;4159140;28;20098;-64
2023/03/21 05:44:39;;;;;;;9.75;8.63;;;16.80;76.50;;;;;;4159017;28;20068;-64
2023/03/21 05:47:22;;;;;;;10.60;8.75;;;16.90;76.30;;;;;;4113076;28;20053;-64
2023/03/21 05:50:06;;;;;;;9.60;7.90;;;16.90;76.20;;;;;;4115806;28;20513;-64
2023/03/21 05:52:48;;;;;;;8.63;7.72;;;17.00;76.10;;;;;;4110292;28;20050;-65
2023/03/21 05:55:29;;;;;;;8.95;8.05;;;17.00;75.80;;;;;;4142412;28;20124;-64
2023/03/21 05:58:12;;;;;;;8.45;7.65;;;17.10;75.60;;;;;;4159266;28;20507;-64
2023/03/21 06:00:57;;;;;;;8.00;7.30;;;17.00;75.50;;;;;;4147811;28;20611;-66
2023/03/21 06:03:44;;;;;;;7.57;6.88;;;17.00;75.50;;;;;;4126579;28;20207;-66
2023/03/21 06:06:29;;;;;;;10.90;8.30;;;17.00;76.50;;;;;;4111878;28;20049;-66
2023/03/21 06:09:14;;;;;;;8.15;7.35;;;16.90;75.70;;;;;;4125244;28;20512;-66
2023/03/21 06:12:00;;;;;;;8.77;7.82;;;16.90;75.90;;;;;;4137396;28;20123;-66
2023/03/21 06:15:07;;;;;;;8.10;7.30;;;16.80;76.20;;;;;;4127262;28;20054;-66
2023/03/21 06:18:11;;;;;;;7.90;7.10;;;16.80;76.50;;;;;;4127139;28;20085;-64
2023/03/21 06:21:00;;;;;;;7.95;7.15;;;16.80;76.90;;;;;;4125866;28;20057;-64
2023/03/21 06:23:41;;;;;;;8.40;6.67;;;16.80;76.70;;;;;;4109314;28;20057;-64
2023/03/21 06:26:24;;;;;;;8.63;7.35;;;16.90;76.50;;;;;;4128795;28;20860;-64
2023/03/21 06:29:06;;;;;;;8.52;7.70;;;16.90;76.30;;;;;;4126000;28;20212;-64
2023/03/21 06:31:50;;;;;;;10.00;8.57;;;16.90;76.10;;;;;;4121806;28;20101;-64
2023/03/21 06:34:31;;;;;;;8.65;7.85;;;16.90;76.10;;;;;;4127813;28;20596;-64
2023/03/21 06:37:12;;;;;;;9.48;8.43;;;16.90;76.40;;;;;;4142686;28;20100;-64
2023/03/21 06:39:54;;;;;;;8.70;7.90;;;16.90;76.80;;;;;;4134980;28;20073;-63
2023/03/21 06:42:36;;;;;;;8.82;7.93;;;16.90;77.00;;;;;;4125865;28;20521;-62
2023/03/21 06:45:24;;;;;;;8.82;7.93;;;16.80;77.10;;;;;;4125819;28;20543;-62
2023/03/21 06:48:07;;;;;;;8.80;7.90;;;16.90;76.90;;;;;;4149701;28;20389;-65
2023/03/21 06:51:16;;;;;;;8.60;7.82;;;16.90;76.60;;;;;;4132721;28;20075;-66
2023/03/21 06:54:21;;;;;;;8.73;8.02;;;17.00;76.50;;;;;;4151309;28;20060;-65
2023/03/21 06:57:07;;;;;;;8.88;8.07;;;17.00;76.40;;;;;;4141628;28;20111;-65
2023/03/21 06:59:49;;;;;;;;;;;17.00;76.40;;;;;;4153033;28;20071;-65
2023/03/21 07:02:32;;;;;;;7.03;6.43;;;16.90;76.50;;;;;;4129715;28;19929;-66
2023/03/21 07:05:24;;;;;;;7.78;6.97;;;16.90;76.70;;;;;;4151299;28;20082;-64
2023/03/21 07:08:09;;;;;;;8.48;6.78;;;16.80;76.90;;;;;;4119954;28;20105;-66
2023/03/21 07:10:57;;;;;;;7.72;7.03;;;16.80;77.10;;;;;;4130687;28;20072;-66
2023/03/21 07:13:38;;;;;;;10.18;6.97;;;16.80;77.20;;;;;;4144537;28;20103;-66
2023/03/21 07:16:20;;;;;;;7.35;6.63;;;16.70;77.40;;;;;;4139616;28;20551;-66
2023/03/21 07:19:01;;;;;;;7.68;6.82;;;16.60;77.40;;;;;;4110631;28;20070;-66
2023/03/21 07:21:43;;;;;;;7.00;6.40;;;16.60;77.60;;;;;;4133997;28;20413;-66
2023/03/21 07:24:25;;;;;;;7.78;7.07;;;16.60;77.70;;;;;;4142754;28;20040;-66
2023/03/21 07:27:06;;;;;;;8.77;7.32;;;16.60;77.80;;;;;;4125300;28;20053;-66
2023/03/21 07:29:49;;;;;;;7.63;6.82;;;16.60;77.80;;;;;;4130707;28;20065;-65
2023/03/21 07:32:33;;;;;;;8.23;7.53;;;16.50;77.90;;;;;;4127541;28;20102;-67
2023/03/21 07:35:17;;;;;;;8.30;7.53;;;16.50;77.80;;;;;;4143186;28;20052;-66
2023/03/21 07:37:59;;;;;;;8.02;7.32;;;16.50;77.90;;;;;;4146141;28;20045;-66
2023/03/21 07:40:40;;;;;;;8.13;6.70;;;16.40;77.90;;;;;;4144738;28;20072;-66
2023/03/21 07:43:21;;;;;;;7.35;6.70;;;16.40;78.00;;;;;;4146184;28;20053;-66
2023/03/21 07:46:05;;;;;;;7.63;6.68;;;16.40;78.20;;;;;;4158561;28;20475;-66
2023/03/21 07:48:46;;;;;;;7.45;6.75;;;16.50;78.10;;;;;;4128015;28;20061;-60
2023/03/21 07:51:27;;;;;;;6.63;6.10;;;16.60;77.70;;;;;;4137723;28;20056;-66
2023/03/21 07:54:09;;;;;;;6.65;5.97;;;16.60;77.40;;;;;;4151384;28;20091;-65
2023/03/21 07:56:50;;;;;;;6.50;5.90;;;16.70;77.10;;;;;;4128717;28;20080;-66
2023/03/21 07:59:31;;;;;;;6.15;5.55;;;16.70;77.10;;;;;;4154471;28;20052;-66
2023/03/21 08:02:14;;;;;;;7.90;5.30;;;16.80;77.00;;;;;;4145128;28;20060;-66
2023/03/21 08:04:56;;;;;;;5.95;5.35;;;16.80;76.70;;;;;;4128109;28;20057;-65
2023/03/21 08:07:37;;;;;;;5.93;5.32;;;16.90;76.50;;;;;;4151821;28;20946;-67
2023/03/21 08:10:19;;;;;;;5.75;5.25;;;16.90;76.30;;;;;;4151993;28;20075;-66
2023/03/21 08:13:01;;;;;;;5.22;4.72;;;16.90;76.20;;;;;;4146801;28;20061;-66
2023/03/21 08:15:42;;;;;;;5.05;4.60;;;16.90;76.20;;;;;;4143731;28;20056;-65
2023/03/21 08:18:23;;;;;;;;;;;16.90;76.30;;;;;;4152193;28;20099;-63
2023/03/21 08:21:04;;;;;;;4.30;4.00;;;16.80;76.30;;;;;;4133819;28;19929;-64
2023/03/21 08:23:45;;;;;;;4.47;4.07;;;16.80;76.50;;;;;;4126353;28;20116;-63
2023/03/21 08:26:27;;;;;;;3.95;3.65;;;16.70;76.60;;;;;;4127752;28;20057;-63
2023/03/21 08:29:08;;;;;;;4.40;4.10;;;16.70;76.90;;;;;;4125868;28;20061;-64
2023/03/21 08:31:49;;;;;;;4.63;4.25;;;16.60;77.20;;;;;;4125382;28;20489;-63
2023/03/21 08:34:30;;;;;;;4.90;4.50;;;16.60;77.40;;;;;;4140087;28;20192;-63
2023/03/21 08:37:12;;;;;;;3.92;3.67;;;16.50;77.80;;;;;;4127264;28;20100;-63
2023/03/21 08:39:53;;;;;;;5.38;4.68;;;16.50;77.80;;;;;;4126271;28;20136;-62
2023/03/21 08:42:36;;;;;;;4.47;4.07;;;16.50;77.90;;;;;;4147598;28;20138;-65
2023/03/21 08:45:18;;;;;;;3.50;3.30;;;16.60;77.90;;;;;;4156625;28;20416;-65
2023/03/21 08:47:59;;;;;;;4.65;3.70;;;16.60;77.70;;;;;;4144466;28;20164;-63
2023/03/21 08:50:40;;;;;;;3.33;3.03;;;16.60;77.50;;;;;;4150511;28;20545;-62
2023/03/21 08:53:21;;;;;;;3.60;3.30;;;16.60;77.30;;;;;;4138148;28;20077;-62
2023/03/21 08:56:02;;;;;;;3.03;2.88;;;16.70;77.40;;;;;;4132471;28;20070;-63
2023/03/21 08:58:46;;;;;;;3.30;2.90;;;16.60;77.40;;;;;;4126165;28;20500;-63
2023/03/21 09:01:27;;;;;;;3.67;3.38;;;16.60;77.40;;;;;;4131185;28;20061;-63
2023/03/21 09:04:09;;;;;;;;;;;16.60;77.50;;;;;;4130470;28;20157;-62
2023/03/21 09:06:50;;;;;;;;;;;16.60;77.70;;;;;;4135917;28;20452;-63
2023/03/21 09:09:31;;;;;;;3.00;2.80;;;16.50;77.80;;;;;;4125557;28;20509;-63
2023/03/21 09:12:13;;;;;;;3.67;3.40;;;16.50;78.00;;;;;;4146368;28;20072;-63
2023/03/21 09:14:55;;;;;;;3.97;3.67;;;16.40;78.10;;;;;;4157639;28;20111;-64
2023/03/21 09:17:40;;;;;;;4.88;4.05;;;16.40;78.30;;;;;;4152125;28;20061;-63
2023/03/21 09:20:29;;;;;;;4.15;3.70;;;16.40;78.50;;;;;;4144107;28;20061;-61
2023/03/21 09:23:12;;;;;;;4.63;4.22;;;16.30;78.70;;;;;;4153984;28;20103;-61
2023/03/21 09:25:53;;;;;;;4.82;3.95;;;16.30;79.00;;;;;;4141915;28;20572;-61
2023/03/21 09:28:34;;;;;;;6.38;3.92;;;16.20;79.10;;;;;;4141627;28;20196;-62
2023/03/21 09:31:21;;;;;;;4.95;4.20;;;16.20;79.30;;;;;;4153209;28;20500;-62
2023/03/21 09:34:03;;;;;;;5.95;3.95;;;16.20;79.40;;;;;;4157596;28;20103;-62
2023/03/21 09:36:47;;;;;;;7.82;5.20;;;16.20;79.50;;;;;;4149617;28;20053;-61
2023/03/21 09:39:28;;;;;;;4.68;4.28;;;16.10;79.50;;;;;;4146625;28;20110;-61
2023/03/21 09:42:26;;;;;;;5.63;5.13;;;16.10;79.70;;;;;;4156930;28;20053;-61
2023/03/21 09:45:15;;;;;;;4.65;4.25;;;16.10;79.80;;;;;;4150536;28;20057;-61
2023/03/21 09:47:58;;;;;;;6.80;5.07;;;16.10;80.00;;;;;;4141783;28;20052;-61
2023/03/21 09:50:40;;;;;;;6.13;5.32;;;16.00;80.00;;;;;;4149403;28;20134;-60
2023/03/21 09:53:25;;;;;;;7.00;4.93;;;16.00;80.20;;;;;;4150580;28;20282;-61
2023/03/21 09:56:11;;;;;;;6.55;5.65;;;16.00;80.20;;;;;;4142214;28;20080;-61
2023/03/21 09:58:58;;;;;;;8.40;6.00;;;16.00;80.30;;;;;;4140392;28;20095;-61
2023/03/21 10:01:44;;;;;;;6.72;5.35;;;16.00;80.50;;;;;;4141819;28;20185;-61
2023/03/21 10:04:26;;;;;;;6.78;5.18;;;15.90;80.50;;;;;;4149038;28;20053;-61
2023/03/21 10:07:14;;;;;;;7.85;5.40;;;15.90;81.50;;;;;;4149385;28;20104;-61
2023/03/21 10:09:56;;;;;;;5.65;5.07;;;15.90;80.80;;;;;;4150627;28;20072;-61
2023/03/21 10:12:37;;;;;;;8.50;5.78;;;15.90;80.80;;;;;;4145241;28;20184;-61
2023/03/21 10:15:21;;;;;;;5.90;5.30;;;15.90;80.80;;;;;;4144277;28;20167;-61
2023/03/21 10:18:04;;;;;;;6.47;5.88;;;15.90;80.80;;;;;;4139830;28;20428;-61
2023/03/21 10:20:47;;;;;;;11.52;5.82;;;15.90;80.80;;;;;;4143838;28;20521;-60
2023/03/21 10:23:29;;;;;;;6.78;5.63;;;15.80;80.80;;;;;;4129046;28;20509;-61
2023/03/21 10:26:11;;;;;;;7.07;5.25;;;15.80;80.90;;;;;;4141052;28;20464;-61
2023/03/21 10:29:00;;;;;;;7.63;5.90;;;15.80;81.80;;;;;;4150102;28;20056;-61
2023/03/21 10:31:42;;;;;;;10.23;6.10;;;15.80;81.00;;;;;;4139755;28;20060;-61
2023/03/21 10:34:31;;;;;;;9.60;6.50;;;15.80;81.00;;;;;;4142126;28;20065;-61
2023/03/21 10:37:15;;;;;;;8.38;6.78;;;15.80;81.00;;;;;;4152264;28;20048;-61
2023/03/21 10:39:56;;;;;;;9.13;7.38;;;15.70;81.10;;;;;;4139895;28;20436;-61
2023/03/21 10:42:39;;;;;;;10.02;7.63;;;15.80;81.20;;;;;;4141114;28;20064;-63
2023/03/21 10:45:22;;;;;;;13.38;8.88;;;15.70;81.30;;;;;;4141335;28;20119;-63
2023/03/21 10:48:08;;;;;;;10.15;8.05;;;15.70;81.30;;;;;;4140970;28;20052;-63
2023/03/21 10:50:51;;;;;;;9.48;8.02;;;15.70;81.40;;;;;;4150909;28;20165;-64
2023/03/21 10:53:38;;;;;;;11.38;8.57;;;15.70;81.40;;;;;;4143476;28;20103;-63
2023/03/21 10:56:23;;;;;;;13.82;8.48;;;15.70;81.50;;;;;;4153319;28;20087;-63
2023/03/21 10:59:07;;;;;;;10.23;8.50;;;15.70;81.50;;;;;;4140871;28;20052;-63
2023/03/21 11:01:50;;;;;;;11.52;9.23;;;15.70;81.50;;;;;;4141012;28;20064;-64
2023/03/21 11:04:31;;;;;;;10.65;7.90;;;15.70;81.60;;;;;;4142022;28;20056;-64
2023/03/21 11:07:14;;;;;;;9.95;7.82;;;15.70;81.60;;;;;;4148111;28;20106;-64
2023/03/21 11:09:59;;;;;;;10.48;7.80;;;15.70;81.70;;;;;;4141255;28;20135;-64
2023/03/21 11:12:46;;;;;;;10.05;8.13;;;15.70;81.70;;;;;;4139358;28;20065;-64
2023/03/21 11:15:31;;;;;;;12.30;8.20;;;15.70;81.70;;;;;;4148116;28;20048;-64
2023/03/21 11:18:18;;;;;;;11.18;8.50;;;15.70;82.70;;;;;;4155854;28;20064;-63
2023/03/21 11:21:05;;;;;;;8.13;7.15;;;15.70;81.90;;;;;;4140359;28;20512;-61
2023/03/21 11:23:51;;;;;;;9.20;7.40;;;15.70;82.00;;;;;;4141406;28;20084;-61
2023/03/21 11:26:37;;;;;;;11.05;7.50;;;15.70;82.10;;;;;;4140374;28;20143;-61
2023/03/21 11:29:27;;;;;;;11.38;7.43;;;15.70;82.00;;;;;;4140997;28;20056;-61
2023/03/21 11:32:16;;;;;;;9.90;6.97;;;15.70;82.00;;;;;;4151799;28;20057;-60
2023/03/21 11:34:59;;;;;;;9.95;7.07;;;15.70;82.00;;;;;;4146566;28;20052;-61
2023/03/21 11:37:45;;;;;;;9.85;7.20;;;15.70;82.10;;;;;;4140130;28;20077;-61
2023/03/21 11:40:29;;;;;;;9.10;7.10;;;15.70;82.10;;;;;;4152361;28;20060;-61
2023/03/21 11:43:27;;;;;;;9.45;6.97;;;15.70;83.00;;;;;;4140140;28;20044;-60
2023/03/21 11:46:09;;;;;;;9.77;6.57;;;15.70;82.20;;;;;;4139312;28;20522;-61
2023/03/21 11:48:51;;;;;;;8.68;6.80;;;15.70;82.20;;;;;;4149108;28;20165;-61
2023/03/21 11:51:38;;;;;;;12.63;6.40;;;15.70;82.30;;;;;;4147489;28;20523;-61
2023/03/21 11:54:25;;;;;;;9.82;6.55;;;15.60;82.20;;;;;;4142726;28;20095;-61
2023/03/21 11:57:17;;;;;;;10.55;6.65;;;15.60;82.20;;;;;;4146941;28;20052;-61
2023/03/21 12:00:09;;;;;;;9.57;6.13;;;15.70;82.30;;;;;;4154995;28;20118;-62
2023/03/21 12:03:25;;;;;;;11.25;6.35;;;15.60;82.20;;;;;;4152338;28;20048;-62
2023/03/21 12:06:17;;;;;;;9.48;6.28;;;15.70;82.30;;;;;;4123866;28;20501;-62
2023/03/21 12:09:09;;;;;;;8.38;5.90;;;15.70;82.30;;;;;;4125269;28;20053;-61
2023/03/21 12:11:54;;;;;;;;;;;15.70;83.20;;;;;;4125211;28;21220;-62
2023/03/21 12:14:47;;;;;;;7.32;5.90;;;15.70;82.40;;;;;;4146679;28;19940;-60
2023/03/21 12:17:38;;;;;;;10.40;6.40;;;15.60;82.40;;;;;;4147836;28;20135;-62
2023/03/21 12:20:33;;;;;;;10.60;6.40;;;15.70;82.50;;;;;;4141708;28;20227;-61
2023/03/21 12:23:35;;;;;;;8.93;6.38;;;15.70;82.50;;;;;;4146697;28;20184;-61
2023/03/21 12:26:23;;;;;;;10.07;5.82;;;15.70;82.50;;;;;;4147739;28;20053;-61
2023/03/21 12:29:40;;;;;;;9.02;6.00;;;15.60;82.40;;;;;;4152708;28;20127;-61
2023/03/21 12:32:37;;;;;;;8.68;5.85;;;15.70;82.50;;;;;;4092360;28;20490;-61
2023/03/21 12:35:31;;;;;;;8.38;6.57;;;15.70;82.60;;;;;;4142954;28;20193;-61
2023/03/21 12:38:17;;;;;;;7.95;6.18;;;15.60;82.80;;;;;;4147937;28;20057;-63
2023/03/21 12:41:22;;;;;;;10.25;6.28;;;15.70;83.10;;;;;;4143095;28;20048;-61
2023/03/21 12:44:05;;;;;;;9.73;6.20;;;15.60;84.00;;;;;;4142847;28;20647;-61
2023/03/21 12:46:51;;;;;;;9.20;6.28;;;15.70;84.30;;;;;;4142828;28;20080;-61
2023/03/21 12:49:38;;;;;;;10.15;6.47;;;15.70;83.50;;;;;;4146197;28;20068;-64
2023/03/21 12:52:24;;;;;;;12.40;6.57;;;15.70;83.60;;;;;;4147842;28;20088;-63
2023/03/21 12:55:13;;;;;;;9.90;6.30;;;15.70;83.90;;;;;;4137034;28;20413;-63
2023/03/21 12:58:00;;;;;;;8.95;7.20;;;15.70;84.00;;;;;;4144483;28;20069;-63
2023/03/21 13:00:44;;;;;;;11.73;6.72;;;15.70;84.00;;;;;;4125800;28;20123;-63
2023/03/21 13:03:31;;;;;;;13.15;6.25;;;15.60;84.10;;;;;;4142415;28;20060;-63
2023/03/21 13:06:26;;;;;;;10.10;7.53;;;15.60;84.20;;;;;;4150492;28;20068;-63
2023/03/21 13:09:14;;;;;;;13.35;6.72;;;15.70;84.40;;;;;;4152549;28;20056;-63
2023/03/21 13:11:59;;;;;;;9.07;6.43;;;15.60;84.40;;;;;;4141784;28;20045;-63
2023/03/21 13:14:51;;;;;;;9.98;7.15;;;15.70;84.40;;;;;;4146135;28;20642;-63
2023/03/21 13:17:40;;;;;;;10.20;6.40;;;15.60;84.30;;;;;;4142402;28;20057;-63
2023/03/21 13:20:29;;;;;;;10.93;6.05;;;15.60;84.30;;;;;;4153566;28;20643;-61
2023/03/21 13:23:12;;;;;;;9.98;6.45;;;15.60;84.30;;;;;;4157034;28;20056;-60
2023/03/21 13:25:57;;;;;;;10.32;6.45;;;15.60;84.30;;;;;;4144190;28;20069;-61
2023/03/21 13:28:40;;;;;;;10.73;6.18;;;15.60;84.30;;;;;;4144404;28;20056;-61
2023/03/21 13:31:26;;;;;;;6.60;5.85;;;15.60;84.30;;;;;;4166384;28;20084;-63
2023/03/21 13:34:10;;;;;;;10.70;6.57;;;15.60;84.30;;;;;;4157345;28;20183;-63
2023/03/21 13:36:52;;;;;;;8.98;6.00;;;15.60;84.30;;;;;;4141143;28;20052;-61
2023/03/21 13:39:36;;;;;;;11.73;6.15;;;15.60;84.30;;;;;;4142510;28;20049;-61
2023/03/21 13:42:23;;;;;;;10.32;5.93;;;15.60;85.00;;;;;;4125100;28;20104;-61
2023/03/21 13:45:10;;;;;;;11.20;6.72;;;15.60;84.00;;;;;;4126111;28;20068;-62
2023/03/21 13:47:56;;;;;;;8.82;5.85;;;15.60;84.10;;;;;;4126594;28;20050;-61
2023/03/21 13:50:52;;;;;;;9.32;5.57;;;15.60;84.10;;;;;;4141373;28;20057;-61
2023/03/21 13:53:36;;;;;;;7.20;5.53;;;15.70;84.20;;;;;;4141553;28;20170;-61
2023/03/21 13:56:23;;;;;;;8.75;5.95;;;15.60;84.20;;;;;;4141959;28;20045;-61
2023/03/21 13:59:09;;;;;;;7.88;5.78;;;15.60;84.20;;;;;;4142242;28;20061;-61
2023/03/21 14:02:00;;;;;;;11.60;6.00;;;15.60;84.20;;;;;;4141391;28;20071;-61
2023/03/21 14:04:43;;;;;;;10.05;5.75;;;15.60;84.10;;;;;;4141578;28;20068;-62
2023/03/21 14:07:47;;;;;;;10.65;5.78;;;15.60;84.20;;;;;;4141171;28;20048;-61
2023/03/21 14:10:34;;;;;;;11.15;5.90;;;15.60;84.20;;;;;;4144954;28;20057;-61
2023/03/21 14:13:21;;;;;;;7.57;5.88;;;15.60;84.30;;;;;;4145768;28;20056;-61
2023/03/21 14:16:08;;;;;;;10.18;6.40;;;15.60;84.20;;;;;;4154599;28;20084;-61
2023/03/21 14:18:53;;;;;;;8.73;6.10;;;15.60;84.20;;;;;;4144009;28;20061;-63
2023/03/21 14:21:36;;;;;;;9.27;6.47;;;15.60;84.20;;;;;;4141373;28;20131;-64
2023/03/21 14:24:18;;;;;;;8.82;6.20;;;15.60;84.10;;;;;;4148107;28;20060;-64